createdAt,value
2023-03-30T00:02:30.167Z,12.90
2023-03-30T00:08:32.707Z,9.70
2023-03-30T00:14:36.921Z,11.20
2023-03-30T00:20:42.212Z,11.40
2023-03-30T00:26:43.870Z,9.10
2023-03-30T00:32:46.307Z,11.90
2023-03-30T00:38:47.906Z,9.30
2023-03-30T00:45:06.140Z,9.70
2023-03-30T00:51:09.878Z,9.90
2023-03-30T00:57:12.283Z,11.40
2023-03-30T01:03:24.171Z,11.90
2023-03-30T01:09:25.746Z,11.50
2023-03-30T01:15:31.543Z,12.20
2023-03-30T01:22:12.223Z,11.00
2023-03-30T01:28:25.465Z,11.80
2023-03-30T01:34:51.061Z,12.10
2023-03-30T01:41:21.851Z,10.50
2023-03-30T01:47:31.217Z,10.90
2023-03-30T01:53:59.199Z,11.90
2023-03-30T02:00:12.601Z,12.60
2023-03-30T02:06:23.882Z,10.30
2023-03-30T02:12:29.493Z,13.20
2023-03-30T02:18:31.513Z,10.60
2023-03-30T02:24:33.081Z,10.90
2023-03-30T02:30:39.373Z,11.10
2023-03-30T02:37:11.062Z,13.00
2023-03-30T02:43:37.242Z,14.00
2023-03-30T02:49:46.094Z,9.90
2023-03-30T02:56:15.277Z,9.80
2023-03-30T03:02:48.924Z,14.10
2023-03-30T03:09:03.239Z,10.40
2023-03-30T03:15:07.059Z,8.50
2023-03-30T03:21:13.103Z,9.10
2023-03-30T03:27:15.671Z,9.10
2023-03-30T03:33:50.261Z,9.90
2023-03-30T03:39:56.852Z,12.10
2023-03-30T03:46:00.009Z,11.50
2023-03-30T03:52:01.830Z,9.40
2023-03-30T03:58:06.596Z,10.10
2023-03-30T04:04:08.257Z,11.30
2023-03-30T04:10:10.172Z,9.00
2023-03-30T04:16:18.316Z,9.30
2023-03-30T04:22:45.416Z,11.10
2023-03-30T04:29:07.442Z,9.80
2023-03-30T04:35:18.616Z,10.10
2023-03-30T04:41:47.955Z,11.70
2023-03-30T04:48:09.949Z,10.90
2023-03-30T04:54:14.257Z,10.20
2023-03-30T05:00:42.004Z,7.00
2023-03-30T05:07:15.479Z,9.10
2023-03-30T05:13:23.941Z,10.30
2023-03-30T05:19:52.815Z,7.80
2023-03-30T05:26:21.126Z,9.80
2023-03-30T05:32:49.833Z,13.10
2023-03-30T05:39:29.658Z,20.80
2023-03-30T05:45:47.232Z,24.40
2023-03-30T05:52:08.061Z,30.60
2023-03-30T05:58:28.505Z,26.60
2023-03-30T06:04:40.040Z,20.70
2023-03-30T06:10:41.993Z,21.90
2023-03-30T06:16:50.392Z,23.90
2023-03-30T06:22:52.381Z,16.70
2023-03-30T06:28:56.735Z,15.40
2023-03-30T06:34:58.437Z,12.40
2023-03-30T06:41:04.977Z,7.90
2023-03-30T06:47:07.649Z,6.10
2023-03-30T06:53:09.063Z,14.10
2023-03-30T06:59:16.408Z,7.50
2023-03-30T07:05:37.108Z,3.60
2023-03-30T07:11:53.869Z,8.20
2023-03-30T07:17:57.648Z,5.80
2023-03-30T07:24:02.734Z,6.30
2023-03-30T07:30:20.600Z,4.80
2023-03-30T07:36:25.196Z,5.50
2023-03-30T07:42:26.776Z,4.50
2023-03-30T07:48:28.625Z,3.90
2023-03-30T07:54:30.594Z,4.20
2023-03-30T08:00:53.233Z,4.00
2023-03-30T08:07:26.938Z,3.10
2023-03-30T08:13:33.710Z,3.60
2023-03-30T08:19:35.328Z,4.10
2023-03-30T08:25:37.224Z,3.40
2023-03-30T08:31:38.740Z,3.00
2023-03-30T08:37:40.459Z,3.50
2023-03-30T08:43:50.274Z,2.70
2023-03-30T08:50:01.187Z,3.50
2023-03-30T08:56:32.100Z,4.90
2023-03-30T09:02:38.189Z,3.90
2023-03-30T09:08:39.993Z,3.40
2023-03-30T09:14:45.291Z,4.50
2023-03-30T09:20:47.699Z,5.00
2023-03-30T09:27:24.712Z,3.00
2023-03-30T09:33:44.602Z,3.60
2023-03-30T09:39:47.310Z,3.40
2023-03-30T09:45:48.810Z,3.20
2023-03-30T09:52:03.493Z,2.80
2023-03-30T09:58:26.099Z,3.80
2023-03-30T10:04:27.628Z,4.60
2023-03-30T10:10:36.829Z,2.40
2023-03-30T10:16:38.377Z,2.60
2023-03-30T10:22:53.649Z,3.90
2023-03-30T10:29:06.924Z,3.80
2023-03-30T10:35:09.452Z,2.70
2023-03-30T10:41:15.087Z,3.00
2023-03-30T10:47:48.925Z,3.20
2023-03-30T10:54:02.534Z,2.90
2023-03-30T11:00:12.344Z,3.30
2023-03-30T11:06:22.204Z,4.30
2023-03-30T11:12:36.296Z,3.90
2023-03-30T11:18:52.743Z,2.60
2023-03-30T11:24:57.657Z,4.60
2023-03-30T11:31:04.387Z,3.80
2023-03-30T11:37:13.838Z,4.50
2023-03-30T11:43:17.083Z,2.50
2023-03-30T11:49:37.953Z,2.70
2023-03-30T11:55:39.314Z,4.30
2023-03-30T12:01:56.073Z,3.20
2023-03-30T12:14:02.184Z,2.30
2023-03-30T12:20:10.141Z,5.70
2023-03-30T12:26:26.422Z,3.00
2023-03-30T12:32:29.377Z,4.70
2023-03-30T12:38:41.048Z,3.10
2023-03-30T12:45:02.160Z,5.00
2023-03-30T12:51:03.827Z,6.40
2023-03-30T12:57:17.707Z,3.90
2023-03-30T13:03:25.275Z,6.50
2023-03-30T13:09:27.264Z,7.30
2023-03-30T13:15:28.869Z,7.10
2023-03-30T13:21:47.207Z,6.70
2023-03-30T13:27:50.336Z,5.80
2023-03-30T13:34:06.793Z,4.70
2023-03-30T13:40:35.172Z,4.10
2023-03-30T13:46:52.474Z,4.70
2023-03-30T13:52:55.524Z,4.30
2023-03-30T13:59:02.775Z,5.30
2023-03-30T14:05:16.188Z,4.80
2023-03-30T14:11:21.125Z,8.30
2023-03-30T14:17:23.867Z,6.40
2023-03-30T14:23:31.121Z,5.90
2023-03-30T14:29:32.817Z,7.10
2023-03-30T14:35:39.363Z,5.20
2023-03-30T14:41:40.829Z,6.00
2023-03-30T14:47:42.587Z,7.40
2023-03-30T14:53:45.634Z,6.30
2023-03-30T14:59:50.850Z,9.60
2023-03-30T15:05:53.479Z,6.20
2023-03-30T15:11:58.524Z,11.30
2023-03-30T15:18:02.331Z,8.90
2023-03-30T15:24:08.190Z,6.40
2023-03-30T15:30:26.161Z,7.80
2023-03-30T15:45:01.060Z,7.50
2023-03-30T15:51:07.491Z,9.50
2023-03-30T15:57:08.983Z,10.20
2023-03-30T16:03:12.476Z,7.30
2023-03-30T16:09:15.505Z,8.90
2023-03-30T16:15:19.609Z,8.70
2023-03-30T16:21:23.801Z,8.30
2023-03-30T16:27:25.199Z,9.30
2023-03-30T16:33:26.635Z,8.20
2023-03-30T16:39:29.838Z,8.40
2023-03-30T16:45:33.594Z,7.70
2023-03-30T16:51:35.199Z,8.70
2023-03-30T16:57:36.940Z,7.40
2023-03-30T17:03:39.271Z,6.70
2023-03-30T17:09:40.932Z,8.90
2023-03-30T17:15:42.737Z,6.90
2023-03-30T17:21:45.134Z,6.50
2023-03-30T17:27:47.967Z,7.90
2023-03-30T17:33:51.233Z,6.60
2023-03-30T17:39:53.174Z,6.40
2023-03-30T17:45:55.092Z,7.20
2023-03-30T17:51:56.882Z,6.00
2023-03-30T17:57:59.497Z,6.30
2023-03-30T18:04:01.118Z,5.60
2023-03-30T18:10:19.713Z,6.10
2023-03-30T18:16:23.661Z,7.00
2023-03-30T18:22:25.417Z,6.20
2023-03-30T18:28:28.025Z,11.20
2023-03-30T18:34:30.203Z,12.90
2023-03-30T18:40:37.631Z,11.30
2023-03-30T18:46:39.926Z,12.30
2023-03-30T18:52:42.270Z,12.10
2023-03-30T18:58:44.164Z,11.80
2023-03-30T19:04:48.377Z,13.60
2023-03-30T19:10:55.407Z,16.20
2023-03-30T19:17:01.879Z,14.00
2023-03-30T19:23:06.114Z,13.50
2023-03-30T19:29:07.999Z,14.30
2023-03-30T19:35:11.178Z,14.20
2023-03-30T19:41:13.620Z,13.30
2023-03-30T19:47:17.718Z,15.90
2023-03-30T19:53:19.301Z,15.60
2023-03-30T19:59:24.033Z,14.40
2023-03-30T20:05:26.047Z,12.80
2023-03-30T20:11:28.124Z,15.20
2023-03-30T20:17:33.418Z,13.00
2023-03-30T20:23:35.513Z,15.30
2023-03-30T20:29:39.085Z,12.70
2023-03-30T20:35:43.263Z,13.90
2023-03-30T20:41:44.894Z,14.00
2023-03-30T20:47:49.275Z,15.40
2023-03-30T20:53:51.018Z,16.00
2023-03-30T20:59:55.712Z,14.40
2023-03-30T21:05:59.842Z,15.10
2023-03-30T21:12:02.920Z,13.90
2023-03-30T21:18:04.909Z,14.60
2023-03-30T21:24:11.218Z,12.10
2023-03-30T21:30:13.741Z,8.60
2023-03-30T21:36:18.737Z,9.30
2023-03-30T21:42:25.696Z,7.80
2023-03-30T21:48:34.694Z,6.40
2023-03-30T21:54:37.195Z,8.40
2023-03-30T22:00:39.879Z,6.90
2023-03-30T22:06:41.338Z,6.80
2023-03-30T22:12:42.885Z,7.60
2023-03-30T22:18:45.138Z,8.70
2023-03-30T22:24:46.654Z,8.00
2023-03-30T22:30:48.288Z,9.20
2023-03-30T22:36:52.242Z,6.50
2023-03-30T22:42:54.048Z,8.10
2023-03-30T22:48:56.019Z,9.10
2023-03-30T22:54:57.784Z,8.00
2023-03-30T23:01:08.498Z,9.20
2023-03-30T23:07:11.122Z,11.20
2023-03-30T23:13:13.319Z,7.70
2023-03-30T23:19:15.395Z,9.60
2023-03-30T23:25:20.345Z,11.90
2023-03-30T23:31:22.296Z,10.40
2023-03-30T23:37:24.827Z,9.60
2023-03-30T23:43:26.366Z,11.90
2023-03-30T23:49:28.829Z,10.80
2023-03-30T23:55:35.280Z,13.10
